Kezdőlap
METAR-TAF:

METAR-TAF

Repülőterek :

Bryansk, Oroszország

földrajzi szélesség: 53-15N, földrajzi hosszúság: 034-19E, magasság: 217 m

Jelenlegi meteorológiai megfigyelések

A jelentés 14 perccel ezelõtt készült, 06:30 UTC
Észak-északkeleti szél 4 kt, északi és kelet-északkeleti között változik
Hőmérséklet 16°C
Páratartalom 31%
Légköri nyomás 1029 hPa
Látótávolság 10 km, vagy több
felhőtlen 1500 m magasságban, és nincs gomolyfelhõ

METAR: UUBP 240630Z 03002MPS 350V070 CAVOK 16/M01 Q1029 R34/CLRD70 NOSIG RMK QFE754/1006

Idő: 09:44 (06:44 UTC)

Előrejelzés

A jelentés 1 órával és 54 perccel ezelõtt készült, 04:50 UTC
Az előrejelzés 24-én 06 óra UTC és 24-én 15 óra UTC között érvényes
Különbözõ irányokból fújó szél 2 kt
Látótávolság 10 km, vagy több
Szórványos felhőzet 4000 lábon
24-én 06 óra UTC és 24-én 15 óra UTC között ideiglenes
Északi szél 6 kt

TAF: UUBP 240450Z 2406/2415 VRB01MPS 9999 SCT040 TEMPO 2406/2415 36003MPS

Meteorológiai megfigyelések és előrejelzések több, mint 4000 repülőtéren (METAR és TAF jelentéseket).

A térképen piros és sárga pontok jelzik az elérhető meteorológiai állomásokat.

Mozgassa az egeret a pont fölött, hogy megjelenjen az állomás neve.

Azután kattintson az időjárási megfigyelések és előrejelzések megtekintéséhez.

A térkép megváltoztatása: kattintson a fekete keresztel jelölt zöld gombra ráközelítéshez, a vonallal jelölt zöld gombra távolításhoz, vagy a zöld nyilakra a szomszédos térképek eléréséhez.


METAR-TAF: